createdAt,value
2017-11-28T00:00:06.250Z,77.10
2017-11-28T00:02:33.182Z,76.20
2017-11-28T00:04:59.348Z,76.20
2017-11-28T00:07:25.558Z,76.00
2017-11-28T00:09:51.796Z,76.20
2017-11-28T00:12:18.737Z,76.50
2017-11-28T00:14:44.950Z,76.40
2017-11-28T00:17:11.122Z,76.50
2017-11-28T00:19:38.030Z,75.90
2017-11-28T00:22:04.223Z,75.80
2017-11-28T00:24:30.402Z,76.70
2017-11-28T00:26:56.950Z,75.90
2017-11-28T00:29:23.115Z,76.20
2017-11-28T00:31:49.337Z,75.90
2017-11-28T00:34:15.537Z,75.80
2017-11-28T00:36:41.678Z,75.60
2017-11-28T00:39:07.869Z,75.10
2017-11-28T00:41:34.050Z,75.50
2017-11-28T00:44:00.238Z,75.50
2017-11-28T00:46:26.440Z,75.80
2017-11-28T00:48:53.381Z,75.90
2017-11-28T00:51:20.407Z,75.90
2017-11-28T00:53:46.588Z,75.90
2017-11-28T00:56:13.484Z,75.70
2017-11-28T00:58:39.694Z,75.70
2017-11-28T01:01:05.886Z,75.60
2017-11-28T01:03:32.806Z,75.40
2017-11-28T01:05:58.985Z,75.30
2017-11-28T01:08:25.921Z,75.40
2017-11-28T01:10:52.938Z,75.60
2017-11-28T01:13:19.151Z,76.20
2017-11-28T01:15:45.417Z,74.90
2017-11-28T01:18:11.595Z,75.40
2017-11-28T01:20:38.514Z,75.60
2017-11-28T01:23:04.753Z,75.60
2017-11-28T01:25:31.015Z,76.00
2017-11-28T01:27:57.306Z,75.00
2017-11-28T01:30:23.481Z,76.00
2017-11-28T01:32:50.387Z,75.20
2017-11-28T01:35:16.555Z,75.10
2017-11-28T01:37:43.492Z,75.40
2017-11-28T01:40:09.683Z,75.10
2017-11-28T01:42:35.862Z,74.80
2017-11-28T01:45:02.083Z,74.50
2017-11-28T01:47:29.033Z,76.20
2017-11-28T01:49:55.238Z,75.40
2017-11-28T01:52:21.431Z,75.20
2017-11-28T01:54:48.347Z,74.80
2017-11-28T01:57:14.517Z,74.10
2017-11-28T01:59:41.436Z,75.50
2017-11-28T02:02:07.632Z,75.40
2017-11-28T02:04:33.791Z,74.90
2017-11-28T02:07:00.008Z,73.90
2017-11-28T02:09:26.159Z,74.20
2017-11-28T02:11:52.395Z,74.80
2017-11-28T02:14:20.053Z,74.60
2017-11-28T02:16:46.226Z,73.90
2017-11-28T02:19:13.156Z,73.90
2017-11-28T02:21:39.411Z,73.90
2017-11-28T02:24:06.342Z,73.60
2017-11-28T02:26:33.286Z,74.40
2017-11-28T02:28:59.762Z,74.40
2017-11-28T02:31:25.959Z,73.70
2017-11-28T02:33:52.111Z,74.80
2017-11-28T02:36:19.038Z,75.70
2017-11-28T02:38:45.238Z,75.60
2017-11-28T02:41:12.341Z,75.60
2017-11-28T02:43:38.534Z,75.20
2017-11-28T02:46:04.727Z,75.30
2017-11-28T02:48:30.914Z,75.70
2017-11-28T02:50:57.098Z,75.30
2017-11-28T02:53:24.010Z,75.00
2017-11-28T02:55:55.619Z,75.10
2017-11-28T02:58:22.834Z,74.90
2017-11-28T03:00:49.864Z,75.80
2017-11-28T03:03:16.021Z,75.70
2017-11-28T03:05:42.221Z,75.70
2017-11-28T03:08:08.398Z,75.50
2017-11-28T03:10:36.297Z,74.70
2017-11-28T03:13:05.118Z,75.20
2017-11-28T03:15:49.115Z,75.20
2017-11-28T03:18:16.919Z,75.00
2017-11-28T03:20:46.034Z,74.80
2017-11-28T03:23:24.328Z,74.90
2017-11-28T03:25:50.482Z,75.80
2017-11-28T03:28:17.446Z,74.20
2017-11-28T03:30:50.747Z,74.80
2017-11-28T03:33:16.911Z,74.70
2017-11-28T03:35:43.835Z,75.40
2017-11-28T03:38:10.080Z,75.30
2017-11-28T03:40:36.237Z,75.00
2017-11-28T03:43:03.158Z,75.10
2017-11-28T03:45:41.337Z,75.10
2017-11-28T03:48:07.722Z,75.00
2017-11-28T03:50:34.645Z,75.00
2017-11-28T03:53:00.815Z,75.00
2017-11-28T03:55:27.734Z,75.10
2017-11-28T03:57:55.393Z,75.60
2017-11-28T04:00:22.541Z,75.00
2017-11-28T04:02:48.742Z,74.90
2017-11-28T04:05:14.919Z,75.40
2017-11-28T04:07:41.132Z,73.70
2017-11-28T04:10:07.350Z,73.50
2017-11-28T04:12:33.567Z,74.30
2017-11-28T04:15:03.642Z,75.00
2017-11-28T04:17:30.551Z,74.10
2017-11-28T04:19:56.764Z,74.00
2017-11-28T04:22:22.962Z,73.70
2017-11-28T04:24:49.184Z,74.40
2017-11-28T04:27:15.346Z,74.40
2017-11-28T04:29:42.296Z,74.30
2017-11-28T04:32:09.536Z,74.80
2017-11-28T04:34:35.722Z,74.70
2017-11-28T04:37:01.905Z,75.40
2017-11-28T04:39:28.134Z,74.70
2017-11-28T04:41:54.306Z,75.50
2017-11-28T04:44:21.251Z,74.10
2017-11-28T04:46:48.204Z,75.70
2017-11-28T04:49:15.134Z,74.70
2017-11-28T04:51:41.370Z,74.70
2017-11-28T04:54:07.547Z,74.50
2017-11-28T04:56:36.654Z,74.70
2017-11-28T04:59:02.870Z,75.40
2017-11-28T05:01:29.049Z,74.80
2017-11-28T05:03:55.273Z,75.50
2017-11-28T05:06:22.225Z,75.20
2017-11-28T05:08:48.476Z,75.10
2017-11-28T05:11:14.676Z,74.40
2017-11-28T05:13:40.870Z,74.70
2017-11-28T05:16:09.496Z,75.50
2017-11-28T05:18:35.672Z,75.40
2017-11-28T05:21:01.876Z,75.70
2017-11-28T05:23:28.858Z,75.70
2017-11-28T05:25:55.097Z,75.60
2017-11-28T05:28:22.071Z,76.20
2017-11-28T05:30:49.038Z,74.80
2017-11-28T05:33:18.189Z,74.80
2017-11-28T05:35:44.437Z,74.40
2017-11-28T05:38:10.674Z,74.20
2017-11-28T05:40:36.886Z,74.90
2017-11-28T05:43:03.082Z,74.60
2017-11-28T05:45:29.262Z,74.70
2017-11-28T05:47:55.488Z,75.10
2017-11-28T05:50:21.699Z,75.10
2017-11-28T05:52:47.881Z,74.00
2017-11-28T05:55:14.085Z,73.80
2017-11-28T05:57:40.551Z,74.10
2017-11-28T06:00:06.779Z,73.90
2017-11-28T06:02:32.988Z,75.10
2017-11-28T06:05:00.054Z,75.30
2017-11-28T06:07:26.255Z,75.60
2017-11-28T06:09:52.441Z,74.60
2017-11-28T06:12:19.398Z,73.00
2017-11-28T06:14:45.599Z,72.90
2017-11-28T06:17:12.743Z,73.70
2017-11-28T06:19:39.820Z,73.10
2017-11-28T06:22:06.024Z,73.80
2017-11-28T06:24:32.210Z,74.10
2017-11-28T06:26:59.174Z,74.00
2017-11-28T06:29:26.119Z,73.60
2017-11-28T06:31:53.057Z,73.00
2017-11-28T06:34:20.214Z,73.00
2017-11-28T06:36:46.430Z,72.20
2017-11-28T06:39:12.622Z,73.30
2017-11-28T06:41:38.838Z,72.30
2017-11-28T06:44:05.780Z,75.70
2017-11-28T06:46:32.723Z,74.20
2017-11-28T06:48:58.906Z,74.20
2017-11-28T06:51:25.161Z,74.30
2017-11-28T06:53:51.346Z,72.80
2017-11-28T06:56:17.569Z,73.10
2017-11-28T06:58:44.517Z,73.00
2017-11-28T07:01:10.735Z,73.00
2017-11-28T07:03:36.929Z,70.90
2017-11-28T07:06:03.120Z,69.90
2017-11-28T07:08:30.121Z,69.90
2017-11-28T07:10:56.302Z,69.60
2017-11-28T07:13:22.489Z,70.60
2017-11-28T07:15:48.663Z,70.00
2017-11-28T07:18:15.667Z,70.80
2017-11-28T07:20:41.818Z,70.00
2017-11-28T07:23:08.014Z,69.60
2017-11-28T07:25:35.247Z,70.00
2017-11-28T07:28:01.473Z,70.50
2017-11-28T07:30:27.651Z,70.90
2017-11-28T07:32:53.853Z,71.00
2017-11-28T07:35:20.284Z,71.00
2017-11-28T07:37:46.461Z,71.50
2017-11-28T07:40:12.658Z,70.40
2017-11-28T07:42:39.606Z,70.90
2017-11-28T07:45:06.533Z,71.60
2017-11-28T07:47:32.760Z,71.60
2017-11-28T07:49:58.943Z,71.20
2017-11-28T07:52:25.125Z,72.10
2017-11-28T07:54:51.303Z,71.70
2017-11-28T07:57:18.225Z,71.90
2017-11-28T07:59:44.400Z,71.90
2017-11-28T08:02:10.671Z,71.50
2017-11-28T08:04:36.865Z,72.10
2017-11-28T08:07:03.068Z,72.00
2017-11-28T08:09:29.295Z,72.20
2017-11-28T08:11:55.526Z,73.30
2017-11-28T08:14:22.489Z,74.40
2017-11-28T08:16:49.437Z,73.60
2017-11-28T08:19:15.691Z,73.50
2017-11-28T08:21:42.683Z,74.10
2017-11-28T08:24:08.932Z,74.10
2017-11-28T08:26:35.155Z,74.10
2017-11-28T08:29:01.347Z,73.80
2017-11-28T08:31:27.574Z,74.30
2017-11-28T08:33:53.794Z,74.20
2017-11-28T08:36:20.321Z,74.20
2017-11-28T08:38:46.562Z,74.50
2017-11-28T08:41:13.506Z,72.90
2017-11-28T08:43:39.737Z,73.40
2017-11-28T08:46:05.984Z,73.30
2017-11-28T08:48:32.163Z,74.00
2017-11-28T08:50:58.353Z,73.60
2017-11-28T08:53:24.571Z,73.10
2017-11-28T08:55:50.743Z,73.20
2017-11-28T08:58:17.681Z,72.90
2017-11-28T09:00:43.907Z,72.80
2017-11-28T09:03:10.127Z,73.00
2017-11-28T09:05:36.342Z,73.30
2017-11-28T09:08:02.572Z,73.20
2017-11-28T09:10:28.752Z,73.10
2017-11-28T09:12:55.736Z,72.30
2017-11-28T09:15:21.957Z,72.20
2017-11-28T09:17:48.922Z,72.50
2017-11-28T09:20:15.222Z,72.50
2017-11-28T09:22:42.178Z,72.30
2017-11-28T09:25:08.358Z,72.20
2017-11-28T09:27:34.550Z,73.30
2017-11-28T09:30:01.490Z,73.30
2017-11-28T09:32:27.666Z,73.30
2017-11-28T09:34:53.842Z,72.40
2017-11-28T09:37:20.271Z,71.90
2017-11-28T09:39:46.452Z,72.70
2017-11-28T09:42:12.649Z,71.60
2017-11-28T09:44:38.896Z,71.60
2017-11-28T09:47:05.910Z,71.80
2017-11-28T09:49:32.077Z,71.70
2017-11-28T09:51:58.255Z,71.40
2017-11-28T09:54:24.448Z,71.60
2017-11-28T09:56:50.660Z,72.00
2017-11-28T09:59:16.885Z,71.20
2017-11-28T10:01:43.095Z,71.10
2017-11-28T10:04:09.265Z,72.20
2017-11-28T10:06:35.493Z,71.80
2017-11-28T10:09:01.681Z,72.60
2017-11-28T10:11:27.885Z,71.50
2017-11-28T10:13:54.080Z,71.60
2017-11-28T10:16:20.237Z,72.00
2017-11-28T10:18:46.418Z,72.00
2017-11-28T10:21:13.416Z,72.20
2017-11-28T10:23:39.648Z,72.20
2017-11-28T10:26:05.865Z,72.00
2017-11-28T10:28:32.841Z,72.30
2017-11-28T10:30:59.005Z,72.30
2017-11-28T10:33:25.938Z,72.40
2017-11-28T10:35:52.156Z,72.40
2017-11-28T10:38:18.522Z,73.00
2017-11-28T10:40:45.448Z,72.70
2017-11-28T10:43:11.662Z,72.70
2017-11-28T10:45:37.834Z,73.20
2017-11-28T10:48:04.023Z,72.80
2017-11-28T10:50:30.234Z,72.80
2017-11-28T10:52:56.438Z,72.70
2017-11-28T10:55:23.401Z,73.00
2017-11-28T10:57:50.370Z,73.60
2017-11-28T11:00:17.299Z,74.30
2017-11-28T11:02:44.244Z,74.80
2017-11-28T11:05:11.263Z,74.70
2017-11-28T11:07:37.473Z,74.60
2017-11-28T11:10:03.651Z,74.90
2017-11-28T11:12:29.849Z,75.20
2017-11-28T11:14:56.028Z,75.90
2017-11-28T11:17:22.202Z,76.20
2017-11-28T11:19:48.449Z,76.20
2017-11-28T11:22:14.728Z,76.40
2017-11-28T11:24:40.940Z,76.80
2017-11-28T11:27:07.163Z,76.90
2017-11-28T11:29:33.363Z,77.40
2017-11-28T11:31:59.929Z,77.20
2017-11-28T11:34:26.209Z,77.60
2017-11-28T11:36:52.411Z,77.40
2017-11-28T11:39:18.774Z,77.50
2017-11-28T11:41:45.014Z,77.60
2017-11-28T11:44:11.981Z,78.10
2017-11-28T11:46:38.981Z,78.70
2017-11-28T11:49:05.199Z,78.70
2017-11-28T11:51:31.424Z,77.70
2017-11-28T11:53:57.598Z,77.40
2017-11-28T11:56:23.867Z,77.00
2017-11-28T11:58:50.812Z,76.50
2017-11-28T12:01:17.762Z,76.80
2017-11-28T12:03:44.728Z,76.90
2017-11-28T12:06:11.635Z,76.80
2017-11-28T12:08:37.821Z,76.70
2017-11-28T12:11:04.027Z,76.20
2017-11-28T12:13:30.288Z,76.80
2017-11-28T12:15:56.498Z,76.50
2017-11-28T12:18:23.422Z,76.40
2017-11-28T12:20:49.620Z,75.80
2017-11-28T12:23:15.894Z,76.40
2017-11-28T12:25:42.133Z,76.20
2017-11-28T12:28:09.798Z,75.50
2017-11-28T12:30:35.978Z,75.50
2017-11-28T12:33:02.220Z,74.90
2017-11-28T12:35:28.426Z,75.70
2017-11-28T12:37:54.607Z,75.60
2017-11-28T12:40:21.019Z,75.20
2017-11-28T12:42:47.218Z,74.80
2017-11-28T12:45:13.402Z,75.00
2017-11-28T12:47:39.594Z,73.90
2017-11-28T12:50:05.781Z,74.30
2017-11-28T12:52:31.957Z,73.60
2017-11-28T12:54:58.177Z,73.30
2017-11-28T12:57:24.371Z,72.90
2017-11-28T12:59:50.606Z,73.20
2017-11-28T13:02:16.835Z,73.00
2017-11-28T13:04:43.027Z,73.40
2017-11-28T13:07:09.206Z,73.80
2017-11-28T13:09:35.435Z,74.10
2017-11-28T13:12:01.647Z,74.20
2017-11-28T13:14:28.610Z,72.50
2017-11-28T13:16:54.829Z,72.50
2017-11-28T13:19:21.038Z,72.40
2017-11-28T13:21:47.241Z,71.90
2017-11-28T13:24:13.771Z,72.60
2017-11-28T13:26:39.959Z,72.10
2017-11-28T13:29:06.155Z,72.80
2017-11-28T13:31:32.379Z,73.20
2017-11-28T13:33:58.524Z,72.30
2017-11-28T13:36:24.722Z,72.50
2017-11-28T13:38:50.905Z,71.70
2017-11-28T13:41:17.242Z,71.70
2017-11-28T13:43:43.398Z,73.00
2017-11-28T13:46:10.356Z,72.80
2017-11-28T13:48:36.525Z,72.70
2017-11-28T13:51:02.701Z,73.70
2017-11-28T13:53:28.958Z,73.70
2017-11-28T13:55:55.886Z,73.00
2017-11-28T13:58:22.134Z,72.90
2017-11-28T14:00:48.331Z,72.90
2017-11-28T14:03:14.537Z,73.90
2017-11-28T14:05:40.709Z,73.40
2017-11-28T14:08:06.919Z,73.80
2017-11-28T14:10:33.118Z,73.40
2017-11-28T14:12:59.291Z,73.10
2017-11-28T14:15:25.481Z,73.10
2017-11-28T14:17:52.409Z,72.60
2017-11-28T14:20:24.777Z,72.60
2017-11-28T14:22:57.074Z,72.10
2017-11-28T14:25:27.913Z,72.20
2017-11-28T14:27:55.719Z,72.30
2017-11-28T14:30:35.893Z,72.20
2017-11-28T14:33:02.071Z,72.00
2017-11-28T14:35:29.807Z,71.90
2017-11-28T14:37:56.043Z,71.80
2017-11-28T14:40:22.238Z,71.90
2017-11-28T14:42:48.542Z,71.90
2017-11-28T14:45:15.726Z,71.70
2017-11-28T14:47:41.901Z,72.40
2017-11-28T14:50:08.099Z,72.50
2017-11-28T14:52:35.174Z,72.10
2017-11-28T14:55:07.570Z,72.50
2017-11-28T14:57:37.485Z,72.60
2017-11-28T15:03:09.646Z,73.10
2017-11-28T15:05:41.779Z,73.10
2017-11-28T15:08:14.926Z,73.00
2017-11-28T15:10:46.186Z,72.90
2017-11-28T15:13:18.570Z,73.00
2017-11-28T15:15:51.605Z,72.80
2017-11-28T15:18:21.873Z,72.80
2017-11-28T15:20:53.015Z,72.00
2017-11-28T15:23:19.924Z,72.90
2017-11-28T15:26:01.162Z,72.90
2017-11-28T15:28:29.162Z,72.60
2017-11-28T15:30:56.956Z,72.30
2017-11-28T15:33:24.042Z,72.20
2017-11-28T15:35:50.253Z,71.80
2017-11-28T15:38:16.407Z,72.90
2017-11-28T15:40:42.594Z,72.00
2017-11-28T15:43:08.947Z,71.70
2017-11-28T15:45:35.167Z,71.80
2017-11-28T15:48:01.305Z,71.80
2017-11-28T15:50:27.493Z,71.90
2017-11-28T15:52:53.666Z,72.80
2017-11-28T15:55:19.841Z,72.00
2017-11-28T15:57:46.032Z,72.80
2017-11-28T16:00:12.997Z,72.00
2017-11-28T16:02:39.180Z,72.00
2017-11-28T16:05:05.350Z,71.70
2017-11-28T16:07:32.263Z,71.60
2017-11-28T16:09:59.217Z,71.80
2017-11-28T16:12:25.413Z,71.70
2017-11-28T16:14:51.575Z,71.70
2017-11-28T16:17:17.797Z,72.60
2017-11-28T16:19:43.985Z,72.20
2017-11-28T16:22:10.911Z,71.40
2017-11-28T16:24:37.861Z,71.30
2017-11-28T16:27:04.129Z,71.20
2017-11-28T16:29:30.314Z,72.20
2017-11-28T16:31:56.594Z,72.50
2017-11-28T16:34:22.843Z,73.20
2017-11-28T16:36:49.052Z,73.50
2017-11-28T16:39:16.078Z,74.10
2017-11-28T16:41:42.334Z,74.10
2017-11-28T16:44:08.771Z,74.50
2017-11-28T16:46:35.767Z,75.00
2017-11-28T16:49:01.941Z,75.00
2017-11-28T16:51:28.121Z,75.00
2017-11-28T16:53:54.360Z,75.10
2017-11-28T16:56:20.537Z,74.90
2017-11-28T16:58:46.724Z,74.90
2017-11-28T17:01:12.934Z,74.70
2017-11-28T17:03:39.130Z,74.20
2017-11-28T17:06:05.295Z,74.80
2017-11-28T17:08:31.603Z,75.60
2017-11-28T17:10:58.029Z,74.80
2017-11-28T17:13:24.269Z,75.00
2017-11-28T17:15:50.462Z,75.20
2017-11-28T17:18:17.074Z,75.20
2017-11-28T17:20:43.229Z,75.80
2017-11-28T17:23:09.447Z,76.20
2017-11-28T17:25:35.640Z,76.10
2017-11-28T17:28:02.341Z,76.30
2017-11-28T17:30:29.539Z,76.70
2017-11-28T17:32:55.928Z,76.60
2017-11-28T17:35:22.979Z,76.80
2017-11-28T17:37:49.195Z,76.70
2017-11-28T17:40:15.435Z,77.00
2017-11-28T17:42:42.383Z,77.00
2017-11-28T17:45:08.841Z,77.10
2017-11-28T17:47:35.152Z,76.90
2017-11-28T17:50:01.617Z,77.30
2017-11-28T17:52:28.748Z,77.20
2017-11-28T17:54:55.071Z,77.20
2017-11-28T17:57:21.393Z,77.20
2017-11-28T17:59:47.866Z,77.60
2017-11-28T18:02:14.147Z,77.30
2017-11-28T18:04:40.427Z,77.00
2017-11-28T18:07:07.478Z,76.20
2017-11-28T18:09:33.722Z,76.20
2017-11-28T18:12:00.166Z,76.20
2017-11-28T18:14:26.467Z,76.40
2017-11-28T18:16:52.802Z,76.20
2017-11-28T18:19:19.053Z,76.50
2017-11-28T18:21:45.311Z,76.80
2017-11-28T18:24:11.597Z,76.90
2017-11-28T18:26:37.976Z,76.10
2017-11-28T18:29:05.888Z,76.20
2017-11-28T18:31:32.169Z,76.10
2017-11-28T18:33:59.146Z,76.10
2017-11-28T18:36:26.985Z,74.90
2017-11-28T18:38:53.250Z,74.80
2017-11-28T18:41:19.465Z,75.70
2017-11-28T18:43:47.206Z,75.30
2017-11-28T18:46:13.662Z,75.30
2017-11-28T18:48:39.896Z,74.20
2017-11-28T18:51:07.759Z,74.90
2017-11-28T18:53:33.991Z,74.80
2017-11-28T18:56:00.198Z,74.70
2017-11-28T18:58:27.314Z,74.60
2017-11-28T19:00:53.689Z,74.00
2017-11-28T19:03:19.999Z,73.70
2017-11-28T19:05:49.785Z,74.40
2017-11-28T19:08:16.093Z,74.30
2017-11-28T19:10:42.286Z,73.80
2017-11-28T19:13:09.295Z,74.60
2017-11-28T19:15:35.475Z,74.40
2017-11-28T19:18:03.405Z,74.90
2017-11-28T19:20:30.612Z,74.80
2017-11-28T19:23:00.424Z,74.30
2017-11-28T19:25:27.677Z,73.80
2017-11-28T19:27:59.117Z,73.20
2017-11-28T19:30:27.143Z,73.10
2017-11-28T19:32:55.706Z,73.10
2017-11-28T19:35:23.041Z,73.10
2017-11-28T19:37:50.230Z,73.80
2017-11-28T19:40:20.030Z,74.10
2017-11-28T19:42:47.304Z,73.60
2017-11-28T19:45:14.390Z,73.10
2017-11-28T19:47:42.876Z,73.60
2017-11-28T19:50:09.695Z,73.60
2017-11-28T19:52:36.236Z,73.70
2017-11-28T19:55:04.082Z,74.00
2017-11-28T19:57:31.834Z,74.00
2017-11-28T19:59:59.270Z,74.60
2017-11-28T20:02:25.787Z,74.50
2017-11-28T20:04:53.218Z,74.20
2017-11-28T20:07:19.531Z,74.30
2017-11-28T20:09:45.794Z,75.60
2017-11-28T20:12:14.156Z,74.60
2017-11-28T20:14:40.506Z,74.80
2017-11-28T20:17:06.792Z,73.70
2017-11-28T20:19:33.059Z,74.20
2017-11-28T20:21:59.264Z,73.90
2017-11-28T20:24:25.519Z,74.20
2017-11-28T20:26:51.813Z,74.90
2017-11-28T20:29:18.123Z,74.60
2017-11-28T20:31:45.418Z,73.50
2017-11-28T20:34:11.750Z,73.90
2017-11-28T20:36:38.006Z,73.90
2017-11-28T20:39:04.227Z,74.20
2017-11-28T20:41:30.584Z,75.00
2017-11-28T20:43:57.594Z,74.00
2017-11-28T20:46:23.858Z,73.90
2017-11-28T20:48:50.552Z,73.10
2017-11-28T20:51:16.795Z,73.30
2017-11-28T20:53:43.103Z,73.70
2017-11-28T20:56:10.248Z,74.10
2017-11-28T20:58:36.648Z,73.30
2017-11-28T21:01:02.902Z,73.10
2017-11-28T21:03:30.918Z,73.30
2017-11-28T21:05:57.304Z,73.70
2017-11-28T21:08:23.629Z,73.50
2017-11-28T21:10:50.054Z,73.80
2017-11-28T21:13:17.096Z,73.60
2017-11-28T21:15:43.361Z,73.60
2017-11-28T21:18:09.666Z,73.30
2017-11-28T21:20:37.332Z,73.40
2017-11-28T21:23:03.617Z,73.20
2017-11-28T21:25:30.085Z,72.70
2017-11-28T21:27:57.178Z,73.70
2017-11-28T21:30:23.512Z,73.70
2017-11-28T21:32:49.813Z,73.10
2017-11-28T21:35:16.019Z,73.10
2017-11-28T21:37:42.202Z,73.80
2017-11-28T21:40:09.906Z,73.40
2017-11-28T21:42:36.136Z,73.30
2017-11-28T21:45:02.491Z,73.80
2017-11-28T21:47:28.814Z,73.50
2017-11-28T21:49:55.334Z,74.30
2017-11-28T21:52:22.252Z,73.60
2017-11-28T21:54:48.438Z,73.50
2017-11-28T21:57:14.624Z,73.40
2017-11-28T21:59:40.831Z,73.60
2017-11-28T22:02:07.033Z,73.10
2017-11-28T22:04:33.932Z,74.60
2017-11-28T22:07:00.094Z,74.50
2017-11-28T22:09:26.270Z,74.50
2017-11-28T22:11:52.455Z,74.60
2017-11-28T22:14:18.666Z,73.70
2017-11-28T22:16:44.843Z,73.40
2017-11-28T22:19:11.745Z,73.40
2017-11-28T22:21:37.909Z,73.50
2017-11-28T22:24:04.074Z,74.00
2017-11-28T22:26:30.259Z,73.80
2017-11-28T22:28:56.421Z,73.40
2017-11-28T22:31:23.330Z,73.90
2017-11-28T22:33:49.762Z,73.80
2017-11-28T22:36:15.910Z,74.40
2017-11-28T22:38:42.079Z,74.70
2017-11-28T22:41:08.263Z,74.60
2017-11-28T22:43:34.435Z,75.00
2017-11-28T22:46:01.358Z,75.40
2017-11-28T22:48:27.528Z,75.30
2017-11-28T22:50:53.938Z,75.00
2017-11-28T22:53:20.133Z,73.40
2017-11-28T22:55:46.317Z,73.60
2017-11-28T22:58:12.510Z,73.90
2017-11-28T23:00:38.702Z,73.90
2017-11-28T23:03:04.893Z,73.70
2017-11-28T23:05:32.554Z,73.90
2017-11-28T23:07:58.754Z,73.30
2017-11-28T23:10:24.916Z,73.70
2017-11-28T23:12:51.082Z,74.30
2017-11-28T23:15:17.262Z,73.50
2017-11-28T23:17:43.494Z,73.90
2017-11-28T23:20:09.612Z,73.80
2017-11-28T23:22:35.822Z,74.60
2017-11-28T23:25:01.984Z,74.70
2017-11-28T23:27:28.147Z,75.00
2017-11-28T23:29:54.350Z,75.40
2017-11-28T23:32:20.532Z,74.50
2017-11-28T23:34:46.763Z,76.20
2017-11-28T23:37:12.963Z,74.80
2017-11-28T23:39:39.183Z,74.70
2017-11-28T23:42:05.359Z,75.10
2017-11-28T23:44:31.521Z,75.50
2017-11-28T23:46:57.687Z,76.40
2017-11-28T23:49:23.854Z,75.70
2017-11-28T23:51:50.240Z,75.40
2017-11-28T23:54:17.145Z,75.60
2017-11-28T23:56:43.323Z,75.50
2017-11-28T23:59:10.251Z,75.50
